sensor_id;sensor_type;location;lat;lon;timestamp;P1;durP1;ratioP1;P2;durP2;ratioP2
80868;SDS011;70295;40.182;44.498;2024-03-08T00:00:17;12.6;;;7.1;;
80868;SDS011;70295;40.182;44.498;2024-03-08T00:02:16;11.3;;;6.8;;
80868;SDS011;70295;40.182;44.498;2024-03-08T00:04:16;11.7;;;7.2;;
80868;SDS011;70295;40.182;44.498;2024-03-08T00:06:16;11.2;;;7.6;;
80868;SDS011;70295;40.182;44.498;2024-03-08T00:08:16;13.2;;;8.4;;
80868;SDS011;70295;40.182;44.498;2024-03-08T00:10:16;12.5;;;8.3;;
80868;SDS011;70295;40.182;44.498;2024-03-08T00:12:16;13.2;;;8.4;;
80868;SDS011;70295;40.182;44.498;2024-03-08T00:14:16;13;;;8.5;;
80868;SDS011;70295;40.182;44.498;2024-03-08T00:16:16;12;;;7.9;;
80868;SDS011;70295;40.182;44.498;2024-03-08T00:18:16;11.3;;;7.5;;
80868;SDS011;70295;40.182;44.498;2024-03-08T00:20:16;12.9;;;8.2;;
80868;SDS011;70295;40.182;44.498;2024-03-08T00:22:17;9.8;;;7.2;;
80868;SDS011;70295;40.182;44.498;2024-03-08T00:24:16;11.2;;;7.8;;
80868;SDS011;70295;40.182;44.498;2024-03-08T00:26:16;14.9;;;7.9;;
80868;SDS011;70295;40.182;44.498;2024-03-08T00:28:16;12.7;;;7.4;;
80868;SDS011;70295;40.182;44.498;2024-03-08T00:30:16;14.9;;;8.1;;
80868;SDS011;70295;40.182;44.498;2024-03-08T00:32:16;11.3;;;7.3;;
80868;SDS011;70295;40.182;44.498;2024-03-08T00:34:16;12.6;;;7.3;;
80868;SDS011;70295;40.182;44.498;2024-03-08T00:36:16;11.1;;;6.5;;
80868;SDS011;70295;40.182;44.498;2024-03-08T00:38:16;13.3;;;7.3;;
80868;SDS011;70295;40.182;44.498;2024-03-08T00:40:16;12.8;;;7.3;;
80868;SDS011;70295;40.182;44.498;2024-03-08T00:42:17;14.4;;;8;;
80868;SDS011;70295;40.182;44.498;2024-03-08T00:44:16;14.2;;;7.8;;
80868;SDS011;70295;40.182;44.498;2024-03-08T00:46:16;15.1;;;8.4;;
80868;SDS011;70295;40.182;44.498;2024-03-08T00:48:16;13.4;;;7.6;;
80868;SDS011;70295;40.182;44.498;2024-03-08T00:50:16;13.3;;;7.4;;
80868;SDS011;70295;40.182;44.498;2024-03-08T00:52:16;14.8;;;7.2;;
80868;SDS011;70295;40.182;44.498;2024-03-08T00:54:16;13.3;;;7.9;;
80868;SDS011;70295;40.182;44.498;2024-03-08T00:56:16;13.9;;;7.4;;
80868;SDS011;70295;40.182;44.498;2024-03-08T00:58:16;13.4;;;7.8;;
80868;SDS011;70295;40.182;44.498;2024-03-08T01:00:17;12.9;;;7.4;;
80868;SDS011;70295;40.182;44.498;2024-03-08T01:02:16;12.4;;;7.6;;
80868;SDS011;70295;40.182;44.498;2024-03-08T01:04:16;13.5;;;7.3;;
80868;SDS011;70295;40.182;44.498;2024-03-08T01:06:16;15.4;;;6.8;;
80868;SDS011;70295;40.182;44.498;2024-03-08T01:08:16;13;;;7;;
80868;SDS011;70295;40.182;44.498;2024-03-08T01:10:16;12.5;;;7;;
80868;SDS011;70295;40.182;44.498;2024-03-08T01:12:16;12.7;;;6.4;;
80868;SDS011;70295;40.182;44.498;2024-03-08T01:14:16;11.7;;;6.1;;
80868;SDS011;70295;40.182;44.498;2024-03-08T01:16:16;10.6;;;6.5;;
80868;SDS011;70295;40.182;44.498;2024-03-08T01:18:16;10.3;;;6;;
80868;SDS011;70295;40.182;44.498;2024-03-08T01:20:16;11.3;;;6.6;;
80868;SDS011;70295;40.182;44.498;2024-03-08T01:22:16;10.7;;;6;;
80868;SDS011;70295;40.182;44.498;2024-03-08T01:24:16;12.2;;;6.7;;
80868;SDS011;70295;40.182;44.498;2024-03-08T01:26:16;10.9;;;6;;
80868;SDS011;70295;40.182;44.498;2024-03-08T01:28:16;11.8;;;6.3;;
80868;SDS011;70295;40.182;44.498;2024-03-08T01:30:16;12;;;6.5;;
80868;SDS011;70295;40.182;44.498;2024-03-08T01:32:16;12.9;;;6.6;;
80868;SDS011;70295;40.182;44.498;2024-03-08T01:34:16;11.8;;;6.1;;
80868;SDS011;70295;40.182;44.498;2024-03-08T01:36:16;11.6;;;6.2;;
80868;SDS011;70295;40.182;44.498;2024-03-08T01:38:16;13.2;;;7.1;;
80868;SDS011;70295;40.182;44.498;2024-03-08T01:40:17;15.5;;;6.9;;
80868;SDS011;70295;40.182;44.498;2024-03-08T01:42:16;14.5;;;7.2;;
80868;SDS011;70295;40.182;44.498;2024-03-08T01:44:16;14;;;6.9;;
80868;SDS011;70295;40.182;44.498;2024-03-08T01:46:19;15.9;;;7.1;;
80868;SDS011;70295;40.182;44.498;2024-03-08T01:48:17;16.2;;;7.8;;
80868;SDS011;70295;40.182;44.498;2024-03-08T01:50:16;16.7;;;8;;
80868;SDS011;70295;40.182;44.498;2024-03-08T01:52:17;15.8;;;8.7;;
80868;SDS011;70295;40.182;44.498;2024-03-08T01:54:18;16.3;;;8;;
80868;SDS011;70295;40.182;44.498;2024-03-08T01:56:17;17;;;8.6;;
80868;SDS011;70295;40.182;44.498;2024-03-08T01:58:16;15.5;;;8.1;;
80868;SDS011;70295;40.182;44.498;2024-03-08T02:00:17;14.8;;;8;;
80868;SDS011;70295;40.182;44.498;2024-03-08T02:02:18;13.5;;;7.4;;
80868;SDS011;70295;40.182;44.498;2024-03-08T02:04:16;15.1;;;7.7;;
80868;SDS011;70295;40.182;44.498;2024-03-08T02:06:16;13.7;;;7.2;;
80868;SDS011;70295;40.182;44.498;2024-03-08T02:08:17;15.4;;;7.3;;
80868;SDS011;70295;40.182;44.498;2024-03-08T02:10:16;13.4;;;7.2;;
80868;SDS011;70295;40.182;44.498;2024-03-08T02:12:16;12.4;;;7;;
80868;SDS011;70295;40.182;44.498;2024-03-08T02:14:17;14.1;;;7;;
80868;SDS011;70295;40.182;44.498;2024-03-08T02:16:21;12.4;;;7;;
80868;SDS011;70295;40.182;44.498;2024-03-08T02:18:16;11.3;;;7;;
80868;SDS011;70295;40.182;44.498;2024-03-08T02:20:16;13.5;;;7;;
80868;SDS011;70295;40.182;44.498;2024-03-08T02:22:16;13;;;6.8;;
80868;SDS011;70295;40.182;44.498;2024-03-08T02:24:16;11.6;;;6.6;;
80868;SDS011;70295;40.182;44.498;2024-03-08T02:26:16;14.4;;;7.3;;
80868;SDS011;70295;40.182;44.498;2024-03-08T02:28:16;14.6;;;7.2;;
80868;SDS011;70295;40.182;44.498;2024-03-08T02:30:16;14.7;;;7.4;;
80868;SDS011;70295;40.182;44.498;2024-03-08T02:32:16;19.9;;;9.4;;
80868;SDS011;70295;40.182;44.498;2024-03-08T02:34:16;18.3;;;8;;
80868;SDS011;70295;40.182;44.498;2024-03-08T02:36:16;20.3;;;8.5;;
80868;SDS011;70295;40.182;44.498;2024-03-08T02:38:18;19.7;;;9.3;;
80868;SDS011;70295;40.182;44.498;2024-03-08T02:40:16;21.2;;;10;;
80868;SDS011;70295;40.182;44.498;2024-03-08T02:42:16;22;;;10.1;;
80868;SDS011;70295;40.182;44.498;2024-03-08T02:44:16;20.7;;;9.2;;
80868;SDS011;70295;40.182;44.498;2024-03-08T02:46:16;21;;;9.4;;
80868;SDS011;70295;40.182;44.498;2024-03-08T02:48:16;20;;;9.5;;
80868;SDS011;70295;40.182;44.498;2024-03-08T02:50:16;22.5;;;9.9;;
80868;SDS011;70295;40.182;44.498;2024-03-08T02:52:16;25.3;;;10.5;;
80868;SDS011;70295;40.182;44.498;2024-03-08T02:54:16;20.4;;;9.7;;
80868;SDS011;70295;40.182;44.498;2024-03-08T02:56:16;26.1;;;10.3;;
80868;SDS011;70295;40.182;44.498;2024-03-08T02:58:16;28.5;;;11.2;;
80868;SDS011;70295;40.182;44.498;2024-03-08T03:00:17;24.4;;;10.8;;
80868;SDS011;70295;40.182;44.498;2024-03-08T03:02:16;21.6;;;10.4;;
80868;SDS011;70295;40.182;44.498;2024-03-08T03:04:16;21.9;;;10.4;;
80868;SDS011;70295;40.182;44.498;2024-03-08T03:06:16;21.5;;;10.1;;
80868;SDS011;70295;40.182;44.498;2024-03-08T03:08:16;23.8;;;10.6;;
80868;SDS011;70295;40.182;44.498;2024-03-08T03:10:17;20.7;;;9.5;;
80868;SDS011;70295;40.182;44.498;2024-03-08T03:12:16;23.3;;;10.3;;
80868;SDS011;70295;40.182;44.498;2024-03-08T03:14:16;23.7;;;10.2;;
80868;SDS011;70295;40.182;44.498;2024-03-08T03:16:19;27.8;;;11.5;;
80868;SDS011;70295;40.182;44.498;2024-03-08T03:18:16;25;;;12.2;;
80868;SDS011;70295;40.182;44.498;2024-03-08T03:20:19;21.9;;;10;;
80868;SDS011;70295;40.182;44.498;2024-03-08T03:22:16;19.8;;;9.4;;
80868;SDS011;70295;40.182;44.498;2024-03-08T03:24:16;22.3;;;8.7;;
80868;SDS011;70295;40.182;44.498;2024-03-08T03:26:16;20.8;;;8.9;;
80868;SDS011;70295;40.182;44.498;2024-03-08T03:28:16;20.5;;;9.3;;
80868;SDS011;70295;40.182;44.498;2024-03-08T03:30:16;21.6;;;9.2;;
80868;SDS011;70295;40.182;44.498;2024-03-08T03:32:16;22.1;;;9.5;;
80868;SDS011;70295;40.182;44.498;2024-03-08T03:34:16;21.4;;;11.2;;
80868;SDS011;70295;40.182;44.498;2024-03-08T03:36:16;24.4;;;10.1;;
80868;SDS011;70295;40.182;44.498;2024-03-08T03:38:16;25.4;;;9.9;;
80868;SDS011;70295;40.182;44.498;2024-03-08T03:40:17;26.9;;;11.8;;
80868;SDS011;70295;40.182;44.498;2024-03-08T03:42:16;28.3;;;12.2;;
80868;SDS011;70295;40.182;44.498;2024-03-08T03:44:16;27.5;;;11.3;;
80868;SDS011;70295;40.182;44.498;2024-03-08T03:46:16;26.5;;;12;;
80868;SDS011;70295;40.182;44.498;2024-03-08T03:48:16;23.4;;;10;;
80868;SDS011;70295;40.182;44.498;2024-03-08T03:50:16;27.9;;;10.6;;
80868;SDS011;70295;40.182;44.498;2024-03-08T03:52:16;29.9;;;12.1;;
80868;SDS011;70295;40.182;44.498;2024-03-08T03:54:16;23.4;;;10.7;;
80868;SDS011;70295;40.182;44.498;2024-03-08T03:56:16;32;;;13.1;;
80868;SDS011;70295;40.182;44.498;2024-03-08T03:58:16;29.7;;;12.8;;
80868;SDS011;70295;40.182;44.498;2024-03-08T04:00:16;25.6;;;12.1;;
80868;SDS011;70295;40.182;44.498;2024-03-08T04:02:17;25;;;11.7;;
80868;SDS011;70295;40.182;44.498;2024-03-08T04:04:16;26.2;;;11.4;;
80868;SDS011;70295;40.182;44.498;2024-03-08T04:06:16;28;;;11.3;;
80868;SDS011;70295;40.182;44.498;2024-03-08T04:08:16;25.1;;;11.1;;
80868;SDS011;70295;40.182;44.498;2024-03-08T04:10:16;23.1;;;10.7;;
80868;SDS011;70295;40.182;44.498;2024-03-08T04:12:16;21.8;;;10.2;;
80868;SDS011;70295;40.182;44.498;2024-03-08T04:14:16;25;;;10.6;;
80868;SDS011;70295;40.182;44.498;2024-03-08T04:16:16;21.4;;;9.5;;
80868;SDS011;70295;40.182;44.498;2024-03-08T04:18:16;17.7;;;8.6;;
80868;SDS011;70295;40.182;44.498;2024-03-08T04:20:16;18.6;;;8.7;;
80868;SDS011;70295;40.182;44.498;2024-03-08T04:22:16;18;;;8.4;;
80868;SDS011;70295;40.182;44.498;2024-03-08T04:24:16;19.2;;;7.9;;
80868;SDS011;70295;40.182;44.498;2024-03-08T04:26:16;19;;;8;;
80868;SDS011;70295;40.182;44.498;2024-03-08T04:28:16;15.6;;;7.5;;
80868;SDS011;70295;40.182;44.498;2024-03-08T04:30:16;15.7;;;7.2;;
80868;SDS011;70295;40.182;44.498;2024-03-08T04:32:16;12.4;;;6.7;;
80868;SDS011;70295;40.182;44.498;2024-03-08T04:34:16;13;;;6.3;;
80868;SDS011;70295;40.182;44.498;2024-03-08T04:36:16;13.3;;;6.7;;
80868;SDS011;70295;40.182;44.498;2024-03-08T04:38:16;13.5;;;6.6;;
80868;SDS011;70295;40.182;44.498;2024-03-08T04:40:16;15.8;;;7.3;;
80868;SDS011;70295;40.182;44.498;2024-03-08T04:42:16;13.4;;;6.2;;
80868;SDS011;70295;40.182;44.498;2024-03-08T04:44:17;14.2;;;6.4;;
80868;SDS011;70295;40.182;44.498;2024-03-08T04:46:16;12.8;;;6.4;;
80868;SDS011;70295;40.182;44.498;2024-03-08T04:48:16;12.5;;;6.3;;
80868;SDS011;70295;40.182;44.498;2024-03-08T04:50:16;15.1;;;5.6;;
80868;SDS011;70295;40.182;44.498;2024-03-08T04:52:16;11.4;;;5.7;;
80868;SDS011;70295;40.182;44.498;2024-03-08T04:54:16;11.5;;;5.8;;
80868;SDS011;70295;40.182;44.498;2024-03-08T04:56:16;10.1;;;6.1;;
80868;SDS011;70295;40.182;44.498;2024-03-08T04:58:16;9.2;;;5.2;;
80868;SDS011;70295;40.182;44.498;2024-03-08T05:00:16;10.5;;;5.6;;
80868;SDS011;70295;40.182;44.498;2024-03-08T05:02:16;14.8;;;7.4;;
80868;SDS011;70295;40.182;44.498;2024-03-08T05:04:16;21.1;;;9.6;;
80868;SDS011;70295;40.182;44.498;2024-03-08T05:06:16;24.3;;;12;;
80868;SDS011;70295;40.182;44.498;2024-03-08T05:08:16;26.2;;;11.3;;
80868;SDS011;70295;40.182;44.498;2024-03-08T05:10:16;22.1;;;11.1;;
80868;SDS011;70295;40.182;44.498;2024-03-08T05:12:16;21.1;;;11.1;;
80868;SDS011;70295;40.182;44.498;2024-03-08T05:14:16;21.9;;;11.3;;
80868;SDS011;70295;40.182;44.498;2024-03-08T05:16:16;22.3;;;10.6;;
80868;SDS011;70295;40.182;44.498;2024-03-08T05:18:16;16.3;;;9.5;;
80868;SDS011;70295;40.182;44.498;2024-03-08T05:20:16;16;;;7.7;;
80868;SDS011;70295;40.182;44.498;2024-03-08T05:22:16;16.4;;;8.6;;
80868;SDS011;70295;40.182;44.498;2024-03-08T05:24:17;19.6;;;9.2;;
80868;SDS011;70295;40.182;44.498;2024-03-08T05:26:16;20.1;;;9.3;;
80868;SDS011;70295;40.182;44.498;2024-03-08T05:28:16;23.2;;;11;;
80868;SDS011;70295;40.182;44.498;2024-03-08T05:30:16;22.3;;;10.4;;
80868;SDS011;70295;40.182;44.498;2024-03-08T05:32:16;17.6;;;11.1;;
80868;SDS011;70295;40.182;44.498;2024-03-08T05:34:16;19.4;;;10.2;;
80868;SDS011;70295;40.182;44.498;2024-03-08T05:36:16;19;;;10.1;;
80868;SDS011;70295;40.182;44.498;2024-03-08T05:38:16;18.6;;;9.6;;
80868;SDS011;70295;40.182;44.498;2024-03-08T05:40:16;17.6;;;9.6;;
80868;SDS011;70295;40.182;44.498;2024-03-08T05:42:16;18.5;;;9.4;;
80868;SDS011;70295;40.182;44.498;2024-03-08T05:44:16;17.7;;;9.7;;
80868;SDS011;70295;40.182;44.498;2024-03-08T05:46:16;18.9;;;9.8;;
80868;SDS011;70295;40.182;44.498;2024-03-08T05:48:16;17.5;;;9;;
80868;SDS011;70295;40.182;44.498;2024-03-08T05:50:16;15;;;9.1;;
80868;SDS011;70295;40.182;44.498;2024-03-08T05:52:16;16.3;;;9.3;;
80868;SDS011;70295;40.182;44.498;2024-03-08T05:54:16;16.6;;;9.3;;
80868;SDS011;70295;40.182;44.498;2024-03-08T05:56:16;17.2;;;8.5;;
80868;SDS011;70295;40.182;44.498;2024-03-08T05:58:16;16.4;;;8.2;;
80868;SDS011;70295;40.182;44.498;2024-03-08T06:00:16;17.2;;;9.1;;
80868;SDS011;70295;40.182;44.498;2024-03-08T06:02:16;18.2;;;8.8;;
80868;SDS011;70295;40.182;44.498;2024-03-08T06:04:16;18.4;;;10.2;;
80868;SDS011;70295;40.182;44.498;2024-03-08T06:06:16;18.9;;;10.1;;
80868;SDS011;70295;40.182;44.498;2024-03-08T06:08:16;20.6;;;10;;
80868;SDS011;70295;40.182;44.498;2024-03-08T06:10:16;23.9;;;9.9;;
80868;SDS011;70295;40.182;44.498;2024-03-08T06:12:16;18.1;;;9.2;;
80868;SDS011;70295;40.182;44.498;2024-03-08T06:14:16;18.6;;;9;;
80868;SDS011;70295;40.182;44.498;2024-03-08T06:16:16;19.7;;;9.3;;
80868;SDS011;70295;40.182;44.498;2024-03-08T06:18:16;20.4;;;9.6;;
80868;SDS011;70295;40.182;44.498;2024-03-08T06:20:16;18.8;;;9.1;;
80868;SDS011;70295;40.182;44.498;2024-03-08T06:22:16;18.8;;;9.7;;
80868;SDS011;70295;40.182;44.498;2024-03-08T06:24:16;22.4;;;10.2;;
80868;SDS011;70295;40.182;44.498;2024-03-08T06:31:53;19.2;;;9.8;;
80868;SDS011;70295;40.182;44.498;2024-03-08T06:33:53;17.4;;;10.3;;
80868;SDS011;70295;40.182;44.498;2024-03-08T06:35:53;17.1;;;8.7;;
80868;SDS011;70295;40.182;44.498;2024-03-08T06:37:53;14.4;;;8.4;;
80868;SDS011;70295;40.182;44.498;2024-03-08T06:39:53;18.2;;;8.7;;
80868;SDS011;70295;40.182;44.498;2024-03-08T06:41:53;17.5;;;8.8;;
80868;SDS011;70295;40.182;44.498;2024-03-08T06:43:53;16.6;;;9;;
80868;SDS011;70295;40.182;44.498;2024-03-08T06:45:53;16.1;;;9.3;;
80868;SDS011;70295;40.182;44.498;2024-03-08T06:47:53;18.4;;;9.2;;
80868;SDS011;70295;40.182;44.498;2024-03-08T06:49:53;18.6;;;9.6;;
80868;SDS011;70295;40.182;44.498;2024-03-08T06:51:53;17.4;;;9.4;;
80868;SDS011;70295;40.182;44.498;2024-03-08T06:53:53;16.1;;;8.8;;
80868;SDS011;70295;40.182;44.498;2024-03-08T06:55:53;16.2;;;9.3;;
80868;SDS011;70295;40.182;44.498;2024-03-08T06:57:53;17.8;;;9.1;;
80868;SDS011;70295;40.182;44.498;2024-03-08T06:59:53;16.7;;;8.6;;
80868;SDS011;70295;40.182;44.498;2024-03-08T07:01:53;14.8;;;8.1;;
80868;SDS011;70295;40.182;44.498;2024-03-08T07:05:40;12.7;;;6.4;;
80868;SDS011;70295;40.182;44.498;2024-03-08T07:07:40;8.8;;;5.2;;
80868;SDS011;70295;40.182;44.498;2024-03-08T07:09:40;9.4;;;5.1;;
80868;SDS011;70295;40.182;44.498;2024-03-08T07:11:40;6.7;;;3.8;;
80868;SDS011;70295;40.182;44.498;2024-03-08T07:13:41;6.8;;;3.3;;
80868;SDS011;70295;40.182;44.498;2024-03-08T07:15:40;6.7;;;3.6;;
80868;SDS011;70295;40.182;44.498;2024-03-08T07:17:40;6.7;;;4;;
80868;SDS011;70295;40.182;44.498;2024-03-08T07:19:40;6.7;;;4.5;;
80868;SDS011;70295;40.182;44.498;2024-03-08T07:21:40;9.6;;;4.9;;
80868;SDS011;70295;40.182;44.498;2024-03-08T07:23:40;8.9;;;5.9;;
80868;SDS011;70295;40.182;44.498;2024-03-08T07:25:40;11.9;;;6.8;;
80868;SDS011;70295;40.182;44.498;2024-03-08T07:27:40;12.8;;;8.7;;
80868;SDS011;70295;40.182;44.498;2024-03-08T07:29:40;13.4;;;9.4;;
80868;SDS011;70295;40.182;44.498;2024-03-08T07:31:40;17.2;;;10.2;;
80868;SDS011;70295;40.182;44.498;2024-03-08T07:33:40;13.6;;;9.3;;
80868;SDS011;70295;40.182;44.498;2024-03-08T07:35:40;14.1;;;9;;
80868;SDS011;70295;40.182;44.498;2024-03-08T07:37:40;16.5;;;9.8;;
80868;SDS011;70295;40.182;44.498;2024-03-08T07:39:40;16.8;;;10.4;;
80868;SDS011;70295;40.182;44.498;2024-03-08T07:41:40;16.7;;;10.4;;
80868;SDS011;70295;40.182;44.498;2024-03-08T07:43:40;17.3;;;11.4;;
80868;SDS011;70295;40.182;44.498;2024-03-08T07:45:40;15.4;;;10.7;;
80868;SDS011;70295;40.182;44.498;2024-03-08T07:47:40;14.2;;;9.6;;
80868;SDS011;70295;40.182;44.498;2024-03-08T07:49:40;11.7;;;7.5;;
80868;SDS011;70295;40.182;44.498;2024-03-08T07:51:40;13.4;;;6.9;;
80868;SDS011;70295;40.182;44.498;2024-03-08T07:53:40;8.3;;;5.9;;
80868;SDS011;70295;40.182;44.498;2024-03-08T07:55:40;7.8;;;5.2;;
80868;SDS011;70295;40.182;44.498;2024-03-08T07:57:40;7.6;;;4.5;;
80868;SDS011;70295;40.182;44.498;2024-03-08T07:59:40;6.6;;;4;;
80868;SDS011;70295;40.182;44.498;2024-03-08T08:01:40;6.9;;;4;;
80868;SDS011;70295;40.182;44.498;2024-03-08T08:03:40;6.8;;;3.6;;
80868;SDS011;70295;40.182;44.498;2024-03-08T08:05:40;6.8;;;4;;
80868;SDS011;70295;40.182;44.498;2024-03-08T08:07:43;3.9;;;2.5;;
80868;SDS011;70295;40.182;44.498;2024-03-08T08:09:40;4.3;;;2.4;;
80868;SDS011;70295;40.182;44.498;2024-03-08T08:11:41;5.5;;;2.5;;
80868;SDS011;70295;40.182;44.498;2024-03-08T08:13:40;4.2;;;2.4;;
80868;SDS011;70295;40.182;44.498;2024-03-08T08:15:40;3.7;;;1.9;;
80868;SDS011;70295;40.182;44.498;2024-03-08T08:17:44;3.8;;;2.5;;
80868;SDS011;70295;40.182;44.498;2024-03-08T08:21:40;4.6;;;2.3;;
80868;SDS011;70295;40.182;44.498;2024-03-08T08:23:40;3.6;;;2.3;;
80868;SDS011;70295;40.182;44.498;2024-03-08T08:25:40;3.7;;;2.1;;
80868;SDS011;70295;40.182;44.498;2024-03-08T08:27:40;3.3;;;2.1;;
80868;SDS011;70295;40.182;44.498;2024-03-08T08:29:40;3.8;;;2.1;;
80868;SDS011;70295;40.182;44.498;2024-03-08T08:31:40;4.3;;;2;;
80868;SDS011;70295;40.182;44.498;2024-03-08T08:33:40;4.1;;;2.3;;
80868;SDS011;70295;40.182;44.498;2024-03-08T08:35:40;3.7;;;2.2;;
80868;SDS011;70295;40.182;44.498;2024-03-08T08:37:40;3.9;;;2.3;;
80868;SDS011;70295;40.182;44.498;2024-03-08T08:39:40;4.1;;;2.2;;
80868;SDS011;70295;40.182;44.498;2024-03-08T08:41:40;4.6;;;2.5;;
80868;SDS011;70295;40.182;44.498;2024-03-08T08:43:40;3.1;;;2.1;;
80868;SDS011;70295;40.182;44.498;2024-03-08T08:45:40;3.5;;;2.2;;
80868;SDS011;70295;40.182;44.498;2024-03-08T08:47:40;3.5;;;2.1;;
80868;SDS011;70295;40.182;44.498;2024-03-08T08:49:40;2.5;;;1.8;;
80868;SDS011;70295;40.182;44.498;2024-03-08T08:51:40;3.4;;;1.8;;
80868;SDS011;70295;40.182;44.498;2024-03-08T08:53:40;4.5;;;2.3;;
80868;SDS011;70295;40.182;44.498;2024-03-08T08:55:40;3.2;;;1.8;;
80868;SDS011;70295;40.182;44.498;2024-03-08T08:57:40;4.7;;;1.8;;
80868;SDS011;70295;40.182;44.498;2024-03-08T08:59:40;2.8;;;1.8;;
80868;SDS011;70295;40.182;44.498;2024-03-08T09:01:40;2.9;;;1.9;;
80868;SDS011;70295;40.182;44.498;2024-03-08T09:03:40;3.5;;;1.7;;
80868;SDS011;70295;40.182;44.498;2024-03-08T09:05:40;2;;;1.2;;
80868;SDS011;70295;40.182;44.498;2024-03-08T09:07:40;2.4;;;1.3;;
80868;SDS011;70295;40.182;44.498;2024-03-08T09:09:42;2.2;;;1.5;;
80868;SDS011;70295;40.182;44.498;2024-03-08T09:11:40;3.7;;;1.5;;
80868;SDS011;70295;40.182;44.498;2024-03-08T09:13:40;3.6;;;1.7;;
80868;SDS011;70295;40.182;44.498;2024-03-08T09:15:40;2.4;;;1.5;;
80868;SDS011;70295;40.182;44.498;2024-03-08T09:17:40;3.2;;;1.6;;
80868;SDS011;70295;40.182;44.498;2024-03-08T09:19:40;2.6;;;1.6;;
80868;SDS011;70295;40.182;44.498;2024-03-08T09:21:40;4.4;;;1.9;;
80868;SDS011;70295;40.182;44.498;2024-03-08T09:23:40;3.6;;;1.9;;
80868;SDS011;70295;40.182;44.498;2024-03-08T09:25:40;2.9;;;1.8;;
80868;SDS011;70295;40.182;44.498;2024-03-08T09:27:40;3.1;;;1.6;;
80868;SDS011;70295;40.182;44.498;2024-03-08T09:29:40;4;;;2;;
80868;SDS011;70295;40.182;44.498;2024-03-08T09:31:40;4.5;;;2.7;;
80868;SDS011;70295;40.182;44.498;2024-03-08T09:33:42;3.7;;;2.1;;
80868;SDS011;70295;40.182;44.498;2024-03-08T09:35:40;3.6;;;1.9;;
80868;SDS011;70295;40.182;44.498;2024-03-08T09:37:40;2.2;;;1.6;;
80868;SDS011;70295;40.182;44.498;2024-03-08T09:39:40;2.9;;;1.9;;
80868;SDS011;70295;40.182;44.498;2024-03-08T09:41:40;8.5;;;2.2;;
80868;SDS011;70295;40.182;44.498;2024-03-08T09:43:40;3.1;;;1.9;;
80868;SDS011;70295;40.182;44.498;2024-03-08T09:45:40;3.3;;;2.3;;
80868;SDS011;70295;40.182;44.498;2024-03-08T09:47:41;2.7;;;1.9;;
80868;SDS011;70295;40.182;44.498;2024-03-08T09:49:41;3.2;;;2.1;;
80868;SDS011;70295;40.182;44.498;2024-03-08T09:51:40;2.9;;;1.8;;
80868;SDS011;70295;40.182;44.498;2024-03-08T09:53:40;3.8;;;1.7;;
80868;SDS011;70295;40.182;44.498;2024-03-08T09:55:40;3.1;;;1.4;;
80868;SDS011;70295;40.182;44.498;2024-03-08T09:57:40;4;;;1.5;;
80868;SDS011;70295;40.182;44.498;2024-03-08T09:59:40;4.1;;;1.5;;
80868;SDS011;70295;40.182;44.498;2024-03-08T10:01:40;3.5;;;1.9;;
80868;SDS011;70295;40.182;44.498;2024-03-08T10:03:40;2.8;;;1.6;;
80868;SDS011;70295;40.182;44.498;2024-03-08T10:05:41;4.9;;;2.1;;
80868;SDS011;70295;40.182;44.498;2024-03-08T10:07:40;2.9;;;1.8;;
80868;SDS011;70295;40.182;44.498;2024-03-08T10:09:40;3.7;;;1.7;;
80868;SDS011;70295;40.182;44.498;2024-03-08T10:11:40;3.6;;;1.6;;
80868;SDS011;70295;40.182;44.498;2024-03-08T10:13:40;2.5;;;1.6;;
80868;SDS011;70295;40.182;44.498;2024-03-08T10:15:40;3.1;;;1.8;;
80868;SDS011;70295;40.182;44.498;2024-03-08T10:17:40;3.2;;;1.8;;
80868;SDS011;70295;40.182;44.498;2024-03-08T10:19:49;2.6;;;1.5;;
80868;SDS011;70295;40.182;44.498;2024-03-08T10:23:40;4.4;;;1.9;;
80868;SDS011;70295;40.182;44.498;2024-03-08T10:25:40;3.9;;;2;;
80868;SDS011;70295;40.182;44.498;2024-03-08T10:27:40;3.8;;;2.3;;
80868;SDS011;70295;40.182;44.498;2024-03-08T10:29:40;3.3;;;1.8;;
80868;SDS011;70295;40.182;44.498;2024-03-08T10:31:43;3.3;;;2;;
80868;SDS011;70295;40.182;44.498;2024-03-08T10:33:40;3.3;;;2.2;;
80868;SDS011;70295;40.182;44.498;2024-03-08T10:35:40;3.9;;;2;;
80868;SDS011;70295;40.182;44.498;2024-03-08T10:37:48;4.9;;;2.2;;
80868;SDS011;70295;40.182;44.498;2024-03-08T10:39:43;2.8;;;2.1;;
80868;SDS011;70295;40.182;44.498;2024-03-08T10:41:43;4.3;;;1.8;;
80868;SDS011;70295;40.182;44.498;2024-03-08T10:45:40;2.5;;;1.6;;
80868;SDS011;70295;40.182;44.498;2024-03-08T10:47:41;2.8;;;1.9;;
80868;SDS011;70295;40.182;44.498;2024-03-08T10:50:06;3.1;;;1.8;;
80868;SDS011;70295;40.182;44.498;2024-03-08T10:51:41;4.8;;;2.2;;
80868;SDS011;70295;40.182;44.498;2024-03-08T10:53:41;4;;;1.8;;
80868;SDS011;70295;40.182;44.498;2024-03-08T10:56:28;3;;;1.8;;
80868;SDS011;70295;40.182;44.498;2024-03-08T10:57:40;3.8;;;1.9;;
80868;SDS011;70295;40.182;44.498;2024-03-08T10:59:40;3.2;;;1.9;;
80868;SDS011;70295;40.182;44.498;2024-03-08T11:01:40;3.6;;;1.9;;
80868;SDS011;70295;40.182;44.498;2024-03-08T11:03:45;3.1;;;1.8;;
80868;SDS011;70295;40.182;44.498;2024-03-08T11:05:41;4.1;;;2;;
80868;SDS011;70295;40.182;44.498;2024-03-08T11:07:43;5.1;;;1.5;;
80868;SDS011;70295;40.182;44.498;2024-03-08T11:09:40;2.4;;;1.2;;
80868;SDS011;70295;40.182;44.498;2024-03-08T11:11:40;2.3;;;1.1;;
80868;SDS011;70295;40.182;44.498;2024-03-08T11:13:43;3;;;1.5;;
80868;SDS011;70295;40.182;44.498;2024-03-08T11:15:42;2.5;;;1.5;;
80868;SDS011;70295;40.182;44.498;2024-03-08T11:17:48;2.8;;;1.5;;
80868;SDS011;70295;40.182;44.498;2024-03-08T11:19:48;3.1;;;1.5;;
80868;SDS011;70295;40.182;44.498;2024-03-08T11:21:43;4.1;;;1.8;;
80868;SDS011;70295;40.182;44.498;2024-03-08T11:23:40;4.3;;;1.7;;
80868;SDS011;70295;40.182;44.498;2024-03-08T11:25:40;2.9;;;1.8;;
80868;SDS011;70295;40.182;44.498;2024-03-08T11:27:52;3.1;;;2.1;;
80868;SDS011;70295;40.182;44.498;2024-03-08T11:29:40;2.8;;;1.8;;
80868;SDS011;70295;40.182;44.498;2024-03-08T11:31:40;2.6;;;1.4;;
80868;SDS011;70295;40.182;44.498;2024-03-08T11:33:40;3.2;;;1.2;;
80868;SDS011;70295;40.182;44.498;2024-03-08T11:35:42;3.3;;;1.2;;
80868;SDS011;70295;40.182;44.498;2024-03-08T11:37:40;2.8;;;1.8;;
80868;SDS011;70295;40.182;44.498;2024-03-08T11:39:45;2;;;1.3;;
80868;SDS011;70295;40.182;44.498;2024-03-08T11:41:40;5.6;;;2.5;;
80868;SDS011;70295;40.182;44.498;2024-03-08T11:45:40;3.3;;;1.9;;
80868;SDS011;70295;40.182;44.498;2024-03-08T11:47:44;2.9;;;1.2;;
80868;SDS011;70295;40.182;44.498;2024-03-08T11:51:40;2.4;;;1.4;;
80868;SDS011;70295;40.182;44.498;2024-03-08T11:54:28;3;;;1.6;;
80868;SDS011;70295;40.182;44.498;2024-03-08T11:56:28;2.7;;;1.4;;
80868;SDS011;70295;40.182;44.498;2024-03-08T11:58:28;2.2;;;1.4;;
80868;SDS011;70295;40.182;44.498;2024-03-08T12:01:29;2.9;;;1.4;;
80868;SDS011;70295;40.182;44.498;2024-03-08T12:03:29;2.7;;;1.3;;
80868;SDS011;70295;40.182;44.498;2024-03-08T12:05:29;3.6;;;1.4;;
80868;SDS011;70295;40.182;44.498;2024-03-08T12:07:29;2.5;;;1.1;;
80868;SDS011;70295;40.182;44.498;2024-03-08T12:09:29;3.1;;;1.1;;
80868;SDS011;70295;40.182;44.498;2024-03-08T12:13:32;3.5;;;1.6;;
80868;SDS011;70295;40.182;44.498;2024-03-08T12:15:29;3.1;;;1.4;;
80868;SDS011;70295;40.182;44.498;2024-03-08T12:17:29;3.9;;;1.6;;
80868;SDS011;70295;40.182;44.498;2024-03-08T12:19:29;2.4;;;1.4;;
80868;SDS011;70295;40.182;44.498;2024-03-08T12:21:31;4.2;;;1.7;;
80868;SDS011;70295;40.182;44.498;2024-03-08T12:23:29;2.1;;;1.2;;
80868;SDS011;70295;40.182;44.498;2024-03-08T12:25:32;3.9;;;1.3;;
80868;SDS011;70295;40.182;44.498;2024-03-08T12:27:29;2.6;;;1;;
80868;SDS011;70295;40.182;44.498;2024-03-08T12:29:29;2.6;;;1.2;;